Aérodrome :
LOGIN :

S'inscrire | Disclaimer

   EN    FR    IT 

 










Légende :    VFR   VFR Marginal   IFR   IFR Intensif   IFR Très Intensif
Visi : 
Plafond : 
>= 8 km
>= 3000ft
5 à 8 km
1000 à 3000 ft
1500m à 5 km
500 à 1000 ft
800 à 1500m
200 à 500 ft
< 800m
< 200 ft
Symboles :   Orages  Brouillard  Fortes neiges  Fortes précipitations  Vent > 20 kt
SIGMETs :   Divers  Orages  Givrage  Turbulence  Onde Orograph.  Cendres Volcan.






- Altitude de l'aérodrome : 53 ft
- Code IATA : HAM


EDDH - Hamburg

DERNIER METAR :
  • 221520Z 23014KT 9999 FEW024 05/01 Q0991 TEMPO 23015G25KT

METARs EXPIRÉS :
  • 221450Z 23013KT 9999 FEW024 05/01 Q0991 TEMPO 23015G25KT
  • 221420Z 24012KT 9999 SCT024 SCT035 06/01 Q0990 TEMPO 23015G25KT
  • 221350Z 23016KT 9999 FEW022 BKN024 06/01 Q0990 TEMPO 23015G25KT
  • 221320Z 22018KT 9999 BKN024 06/02 Q0990 TEMPO 23015G25KT
  • 221250Z 23015KT 9999 BKN023 06/02 Q0989 TEMPO 23015G35KT

TAF TAF EDDH
Valide du 22 à 12h jusqu'au 23 à 18h UTC


221100Z 2212/2318 23015G25KT 9999 SCT020
BECMG 2215/2217 22009KT
BECMG 2302/2304 18003KT
TEMPO 2304/2310 3000 BR
PROB30
TEMPO 2305/2308 0800 FG BKN002
BECMG 2310/2312 19008KT
PROB30
TEMPO 2315/2318 4500 -RASN BKN013



MET'MAP, la Météo Aéronautique d'un coup d'oeil ! - Copyright ORBIFLY Décembre 2007 - Disclaimer

ORBIFLY MET'MAP TEAM :

Programmation & Développement : Alexandra Zaïnal
Sur une idée originale de : Baudouin d'Aumeries
Assistance à la programmation : Marc-Olivier Méhu
Soutien technique & logistique : Manuel Goepfert

Contact : metmap@orbifly.com




SOURCES & CREDITS :

   NOAA